sensor_id;sensor_type;location;lat;lon;timestamp;temperature;humidity
72865;DHT22;61000;48.120;11.548;2023-04-12T00:00:08;5.90;99.90
72865;DHT22;61000;48.120;11.548;2023-04-12T00:02:39;5.90;99.90
72865;DHT22;61000;48.120;11.548;2023-04-12T00:05:07;5.90;99.90
72865;DHT22;61000;48.120;11.548;2023-04-12T00:07:36;5.80;99.90
72865;DHT22;61000;48.120;11.548;2023-04-12T00:10:07;5.90;99.90
72865;DHT22;61000;48.120;11.548;2023-04-12T00:12:34;5.80;99.90
72865;DHT22;61000;48.120;11.548;2023-04-12T00:15:00;5.90;99.90
72865;DHT22;61000;48.120;11.548;2023-04-12T00:17:27;5.80;99.90
72865;DHT22;61000;48.120;11.548;2023-04-12T00:19:54;5.80;99.90
72865;DHT22;61000;48.120;11.548;2023-04-12T00:22:22;5.80;99.90
72865;DHT22;61000;48.120;11.548;2023-04-12T00:24:48;5.90;99.90
72865;DHT22;61000;48.120;11.548;2023-04-12T00:27:18;5.90;99.90
72865;DHT22;61000;48.120;11.548;2023-04-12T00:29:45;5.90;99.90
72865;DHT22;61000;48.120;11.548;2023-04-12T00:32:11;5.80;99.90
72865;DHT22;61000;48.120;11.548;2023-04-12T00:34:38;6.00;99.90
72865;DHT22;61000;48.120;11.548;2023-04-12T00:37:05;5.80;99.90
72865;DHT22;61000;48.120;11.548;2023-04-12T00:39:32;5.90;99.90
72865;DHT22;61000;48.120;11.548;2023-04-12T00:42:02;5.80;99.90
72865;DHT22;61000;48.120;11.548;2023-04-12T00:44:31;5.80;99.90
72865;DHT22;61000;48.120;11.548;2023-04-12T00:47:00;5.80;99.90
72865;DHT22;61000;48.120;11.548;2023-04-12T00:49:30;5.80;99.90
72865;DHT22;61000;48.120;11.548;2023-04-12T00:51:59;5.90;99.90
72865;DHT22;61000;48.120;11.548;2023-04-12T00:54:28;5.90;99.90
72865;DHT22;61000;48.120;11.548;2023-04-12T00:56:55;6.00;99.90
72865;DHT22;61000;48.120;11.548;2023-04-12T00:59:22;6.00;99.90
72865;DHT22;61000;48.120;11.548;2023-04-12T01:01:50;5.90;99.90
72865;DHT22;61000;48.120;11.548;2023-04-12T01:04:18;6.00;99.90
72865;DHT22;61000;48.120;11.548;2023-04-12T01:06:59;6.00;99.90
72865;DHT22;61000;48.120;11.548;2023-04-12T01:09:34;6.00;99.90
72865;DHT22;61000;48.120;11.548;2023-04-12T01:12:09;6.00;99.90
72865;DHT22;61000;48.120;11.548;2023-04-12T01:14:47;6.00;99.90
72865;DHT22;61000;48.120;11.548;2023-04-12T01:17:25;6.00;99.90
72865;DHT22;61000;48.120;11.548;2023-04-12T01:19:56;6.10;99.90
72865;DHT22;61000;48.120;11.548;2023-04-12T01:22:35;6.10;99.90
72865;DHT22;61000;48.120;11.548;2023-04-12T01:25:23;6.10;99.90
72865;DHT22;61000;48.120;11.548;2023-04-12T01:27:56;6.10;99.90
72865;DHT22;61000;48.120;11.548;2023-04-12T01:30:25;6.10;99.90
72865;DHT22;61000;48.120;11.548;2023-04-12T01:32:55;6.10;99.90
72865;DHT22;61000;48.120;11.548;2023-04-12T01:35:27;6.10;99.90
72865;DHT22;61000;48.120;11.548;2023-04-12T01:37:56;6.10;99.90
72865;DHT22;61000;48.120;11.548;2023-04-12T01:40:23;6.10;99.90
72865;DHT22;61000;48.120;11.548;2023-04-12T01:43:03;6.10;99.90
72865;DHT22;61000;48.120;11.548;2023-04-12T01:45:30;6.10;99.90
72865;DHT22;61000;48.120;11.548;2023-04-12T01:47:57;6.10;99.90
72865;DHT22;61000;48.120;11.548;2023-04-12T01:50:32;6.10;99.90
72865;DHT22;61000;48.120;11.548;2023-04-12T01:53:04;6.10;99.90
72865;DHT22;61000;48.120;11.548;2023-04-12T01:55:37;6.20;99.90
72865;DHT22;61000;48.120;11.548;2023-04-12T01:58:06;6.20;99.90
72865;DHT22;61000;48.120;11.548;2023-04-12T02:00:35;6.10;99.90
72865;DHT22;61000;48.120;11.548;2023-04-12T02:03:04;6.20;99.90
72865;DHT22;61000;48.120;11.548;2023-04-12T02:05:32;6.10;99.90
72865;DHT22;61000;48.120;11.548;2023-04-12T02:08:01;6.10;99.90
72865;DHT22;61000;48.120;11.548;2023-04-12T02:10:29;6.10;99.90
72865;DHT22;61000;48.120;11.548;2023-04-12T02:13:00;6.10;99.90
72865;DHT22;61000;48.120;11.548;2023-04-12T02:15:28;6.10;99.90
72865;DHT22;61000;48.120;11.548;2023-04-12T02:17:55;6.10;99.90
72865;DHT22;61000;48.120;11.548;2023-04-12T02:20:24;6.10;99.90
72865;DHT22;61000;48.120;11.548;2023-04-12T02:22:51;6.10;99.90
72865;DHT22;61000;48.120;11.548;2023-04-12T02:25:18;6.10;99.90
72865;DHT22;61000;48.120;11.548;2023-04-12T02:27:46;6.10;99.90
72865;DHT22;61000;48.120;11.548;2023-04-12T02:30:13;6.10;99.90
72865;DHT22;61000;48.120;11.548;2023-04-12T02:32:44;6.10;99.90
72865;DHT22;61000;48.120;11.548;2023-04-12T02:35:23;6.10;99.90
72865;DHT22;61000;48.120;11.548;2023-04-12T02:37:56;6.10;99.90
72865;DHT22;61000;48.120;11.548;2023-04-12T02:40:27;6.10;99.90
72865;DHT22;61000;48.120;11.548;2023-04-12T02:42:55;6.10;99.90
72865;DHT22;61000;48.120;11.548;2023-04-12T02:45:24;6.00;99.90
72865;DHT22;61000;48.120;11.548;2023-04-12T02:47:53;6.00;99.90
72865;DHT22;61000;48.120;11.548;2023-04-12T02:50:24;6.00;99.90
72865;DHT22;61000;48.120;11.548;2023-04-12T02:52:58;6.10;99.90
72865;DHT22;61000;48.120;11.548;2023-04-12T02:55:25;6.00;99.90
72865;DHT22;61000;48.120;11.548;2023-04-12T02:57:52;6.00;99.90
72865;DHT22;61000;48.120;11.548;2023-04-12T03:00:20;6.10;99.90
72865;DHT22;61000;48.120;11.548;2023-04-12T03:02:57;6.00;99.90
72865;DHT22;61000;48.120;11.548;2023-04-12T03:05:27;6.00;99.90
72865;DHT22;61000;48.120;11.548;2023-04-12T03:07:54;5.90;99.90
72865;DHT22;61000;48.120;11.548;2023-04-12T03:10:29;6.10;99.90
72865;DHT22;61000;48.120;11.548;2023-04-12T03:13:01;5.90;99.90
72865;DHT22;61000;48.120;11.548;2023-04-12T03:15:34;5.90;99.90
72865;DHT22;61000;48.120;11.548;2023-04-12T03:18:03;5.80;99.90
72865;DHT22;61000;48.120;11.548;2023-04-12T03:20:39;5.80;99.90
72865;DHT22;61000;48.120;11.548;2023-04-12T03:23:08;5.90;99.90
72865;DHT22;61000;48.120;11.548;2023-04-12T03:25:41;5.70;99.90
72865;DHT22;61000;48.120;11.548;2023-04-12T03:28:29;5.70;99.90
72865;DHT22;61000;48.120;11.548;2023-04-12T03:30:57;5.70;99.90
72865;DHT22;61000;48.120;11.548;2023-04-12T03:33:33;5.70;99.90
72865;DHT22;61000;48.120;11.548;2023-04-12T03:36:03;5.70;99.90
72865;DHT22;61000;48.120;11.548;2023-04-12T03:38:31;5.70;99.90
72865;DHT22;61000;48.120;11.548;2023-04-12T03:40:58;5.70;99.90
72865;DHT22;61000;48.120;11.548;2023-04-12T03:43:35;5.70;99.90
72865;DHT22;61000;48.120;11.548;2023-04-12T03:46:07;5.70;99.90
72865;DHT22;61000;48.120;11.548;2023-04-12T03:48:36;5.60;99.90
72865;DHT22;61000;48.120;11.548;2023-04-12T03:51:03;5.80;99.90
72865;DHT22;61000;48.120;11.548;2023-04-12T03:53:43;5.70;99.90
72865;DHT22;61000;48.120;11.548;2023-04-12T03:56:13;5.80;99.90
72865;DHT22;61000;48.120;11.548;2023-04-12T03:58:44;5.70;99.90
72865;DHT22;61000;48.120;11.548;2023-04-12T04:01:12;5.70;99.90
72865;DHT22;61000;48.120;11.548;2023-04-12T04:03:42;5.70;99.90
72865;DHT22;61000;48.120;11.548;2023-04-12T04:06:18;5.60;99.90
72865;DHT22;61000;48.120;11.548;2023-04-12T04:08:45;5.60;99.90
72865;DHT22;61000;48.120;11.548;2023-04-12T04:11:12;5.60;99.90
72865;DHT22;61000;48.120;11.548;2023-04-12T04:13:43;5.50;99.90
72865;DHT22;61000;48.120;11.548;2023-04-12T04:16:16;5.40;99.90
72865;DHT22;61000;48.120;11.548;2023-04-12T04:18:45;5.50;99.90
72865;DHT22;61000;48.120;11.548;2023-04-12T04:21:14;5.50;99.90
72865;DHT22;61000;48.120;11.548;2023-04-12T04:23:41;5.50;99.90
72865;DHT22;61000;48.120;11.548;2023-04-12T04:26:13;5.40;99.90
72865;DHT22;61000;48.120;11.548;2023-04-12T04:28:52;5.50;99.90
72865;DHT22;61000;48.120;11.548;2023-04-12T04:31:24;5.40;99.90
72865;DHT22;61000;48.120;11.548;2023-04-12T04:33:53;5.40;99.90
72865;DHT22;61000;48.120;11.548;2023-04-12T04:36:26;5.30;99.90
72865;DHT22;61000;48.120;11.548;2023-04-12T04:38:54;5.40;99.90
72865;DHT22;61000;48.120;11.548;2023-04-12T04:41:36;5.40;99.90
72865;DHT22;61000;48.120;11.548;2023-04-12T04:44:10;5.30;99.90
72865;DHT22;61000;48.120;11.548;2023-04-12T04:46:45;5.40;99.90
72865;DHT22;61000;48.120;11.548;2023-04-12T04:49:14;5.30;99.90
72865;DHT22;61000;48.120;11.548;2023-04-12T04:51:42;5.30;99.90
72865;DHT22;61000;48.120;11.548;2023-04-12T04:54:10;5.40;99.90
72865;DHT22;61000;48.120;11.548;2023-04-12T04:56:40;5.30;99.90
72865;DHT22;61000;48.120;11.548;2023-04-12T04:59:08;5.40;99.90
72865;DHT22;61000;48.120;11.548;2023-04-12T05:01:35;5.30;99.90
72865;DHT22;61000;48.120;11.548;2023-04-12T05:04:03;5.40;99.90
72865;DHT22;61000;48.120;11.548;2023-04-12T05:06:32;5.40;99.90
72865;DHT22;61000;48.120;11.548;2023-04-12T05:09:00;5.40;99.90
72865;DHT22;61000;48.120;11.548;2023-04-12T05:11:28;5.40;99.90
72865;DHT22;61000;48.120;11.548;2023-04-12T05:13:55;5.30;99.90
72865;DHT22;61000;48.120;11.548;2023-04-12T05:16:23;5.40;99.90
72865;DHT22;61000;48.120;11.548;2023-04-12T05:18:50;5.30;99.90
72865;DHT22;61000;48.120;11.548;2023-04-12T05:21:17;5.30;99.90
72865;DHT22;61000;48.120;11.548;2023-04-12T05:23:46;5.40;99.90
72865;DHT22;61000;48.120;11.548;2023-04-12T05:26:13;5.40;99.90
72865;DHT22;61000;48.120;11.548;2023-04-12T05:28:44;5.40;99.90
72865;DHT22;61000;48.120;11.548;2023-04-12T05:31:12;5.40;99.90
72865;DHT22;61000;48.120;11.548;2023-04-12T05:33:39;5.30;99.90
72865;DHT22;61000;48.120;11.548;2023-04-12T05:36:06;5.30;99.90
72865;DHT22;61000;48.120;11.548;2023-04-12T05:38:33;5.30;99.90
72865;DHT22;61000;48.120;11.548;2023-04-12T05:41:05;5.30;99.90
72865;DHT22;61000;48.120;11.548;2023-04-12T05:43:33;5.40;99.90
72865;DHT22;61000;48.120;11.548;2023-04-12T05:46:02;5.40;99.90
72865;DHT22;61000;48.120;11.548;2023-04-12T05:48:29;5.30;99.90
72865;DHT22;61000;48.120;11.548;2023-04-12T05:51:01;5.40;99.90
72865;DHT22;61000;48.120;11.548;2023-04-12T05:53:29;5.30;99.90
72865;DHT22;61000;48.120;11.548;2023-04-12T05:56:00;5.30;99.90
72865;DHT22;61000;48.120;11.548;2023-04-12T05:58:29;5.30;99.90
72865;DHT22;61000;48.120;11.548;2023-04-12T06:00:55;5.40;99.90
72865;DHT22;61000;48.120;11.548;2023-04-12T06:03:23;5.40;99.90
72865;DHT22;61000;48.120;11.548;2023-04-12T06:05:52;5.30;99.90
72865;DHT22;61000;48.120;11.548;2023-04-12T06:08:18;5.40;99.90
72865;DHT22;61000;48.120;11.548;2023-04-12T06:10:45;5.40;99.90
72865;DHT22;61000;48.120;11.548;2023-04-12T06:13:13;5.40;99.90
72865;DHT22;61000;48.120;11.548;2023-04-12T06:15:43;5.40;99.90
72865;DHT22;61000;48.120;11.548;2023-04-12T06:18:10;5.40;99.90
72865;DHT22;61000;48.120;11.548;2023-04-12T06:20:38;5.50;99.90
72865;DHT22;61000;48.120;11.548;2023-04-12T06:23:05;5.40;99.90
72865;DHT22;61000;48.120;11.548;2023-04-12T06:25:32;5.40;99.90
72865;DHT22;61000;48.120;11.548;2023-04-12T06:28:00;5.50;99.90
72865;DHT22;61000;48.120;11.548;2023-04-12T06:30:27;5.60;99.90
72865;DHT22;61000;48.120;11.548;2023-04-12T06:32:56;5.60;99.90
72865;DHT22;61000;48.120;11.548;2023-04-12T06:35:22;5.70;99.90
72865;DHT22;61000;48.120;11.548;2023-04-12T06:37:49;5.60;99.90
72865;DHT22;61000;48.120;11.548;2023-04-12T06:40:16;5.60;99.90
72865;DHT22;61000;48.120;11.548;2023-04-12T06:42:43;5.60;99.90
72865;DHT22;61000;48.120;11.548;2023-04-12T06:45:10;5.70;99.90
72865;DHT22;61000;48.120;11.548;2023-04-12T06:47:37;5.90;99.90
72865;DHT22;61000;48.120;11.548;2023-04-12T06:50:06;5.80;99.90
72865;DHT22;61000;48.120;11.548;2023-04-12T06:52:33;5.80;99.90
72865;DHT22;61000;48.120;11.548;2023-04-12T06:55:00;6.00;99.90
72865;DHT22;61000;48.120;11.548;2023-04-12T06:57:27;5.90;99.90
72865;DHT22;61000;48.120;11.548;2023-04-12T06:59:54;6.00;99.90
72865;DHT22;61000;48.120;11.548;2023-04-12T07:02:21;6.10;99.90
72865;DHT22;61000;48.120;11.548;2023-04-12T07:04:51;6.10;99.90
72865;DHT22;61000;48.120;11.548;2023-04-12T07:07:19;6.20;99.90
72865;DHT22;61000;48.120;11.548;2023-04-12T07:09:46;6.10;99.90
72865;DHT22;61000;48.120;11.548;2023-04-12T07:12:13;6.20;99.90
72865;DHT22;61000;48.120;11.548;2023-04-12T07:14:40;6.20;99.90
72865;DHT22;61000;48.120;11.548;2023-04-12T07:17:06;6.30;99.90
72865;DHT22;61000;48.120;11.548;2023-04-12T07:19:35;6.30;99.90
72865;DHT22;61000;48.120;11.548;2023-04-12T07:22:02;6.30;99.90
72865;DHT22;61000;48.120;11.548;2023-04-12T07:24:30;6.40;99.90
72865;DHT22;61000;48.120;11.548;2023-04-12T07:26:57;6.40;99.90
72865;DHT22;61000;48.120;11.548;2023-04-12T07:29:24;6.40;99.90
72865;DHT22;61000;48.120;11.548;2023-04-12T07:31:51;6.40;99.90
72865;DHT22;61000;48.120;11.548;2023-04-12T07:34:17;6.40;99.90
72865;DHT22;61000;48.120;11.548;2023-04-12T07:36:45;6.40;99.90
72865;DHT22;61000;48.120;11.548;2023-04-12T07:39:12;6.40;99.90
72865;DHT22;61000;48.120;11.548;2023-04-12T07:41:43;6.10;99.90
72865;DHT22;61000;48.120;11.548;2023-04-12T07:44:11;6.60;99.90
72865;DHT22;61000;48.120;11.548;2023-04-12T07:46:38;6.70;99.90
72865;DHT22;61000;48.120;11.548;2023-04-12T07:49:06;6.80;99.90
72865;DHT22;61000;48.120;11.548;2023-04-12T07:51:35;7.00;99.90
72865;DHT22;61000;48.120;11.548;2023-04-12T07:54:02;7.10;99.90
72865;DHT22;61000;48.120;11.548;2023-04-12T07:56:29;7.20;99.90
72865;DHT22;61000;48.120;11.548;2023-04-12T07:58:57;7.20;99.90
72865;DHT22;61000;48.120;11.548;2023-04-12T08:01:24;7.20;99.90
72865;DHT22;61000;48.120;11.548;2023-04-12T08:03:51;7.30;99.90
72865;DHT22;61000;48.120;11.548;2023-04-12T08:06:18;7.20;99.90
72865;DHT22;61000;48.120;11.548;2023-04-12T08:08:45;7.30;99.90
72865;DHT22;61000;48.120;11.548;2023-04-12T08:11:12;7.30;99.90
72865;DHT22;61000;48.120;11.548;2023-04-12T08:13:39;7.40;99.90
72865;DHT22;61000;48.120;11.548;2023-04-12T08:16:07;7.40;99.90
72865;DHT22;61000;48.120;11.548;2023-04-12T08:18:34;7.90;99.90
72865;DHT22;61000;48.120;11.548;2023-04-12T08:21:01;7.50;99.90
72865;DHT22;61000;48.120;11.548;2023-04-12T08:23:29;7.70;99.90
72865;DHT22;61000;48.120;11.548;2023-04-12T08:25:55;7.60;99.90
72865;DHT22;61000;48.120;11.548;2023-04-12T08:28:27;7.70;99.90
72865;DHT22;61000;48.120;11.548;2023-04-12T08:30:55;7.70;99.90
72865;DHT22;61000;48.120;11.548;2023-04-12T08:33:24;7.70;99.90
72865;DHT22;61000;48.120;11.548;2023-04-12T08:35:52;7.70;99.90
72865;DHT22;61000;48.120;11.548;2023-04-12T08:38:18;8.20;99.90
72865;DHT22;61000;48.120;11.548;2023-04-12T08:40:45;7.70;99.90
72865;DHT22;61000;48.120;11.548;2023-04-12T08:43:13;7.70;99.90
72865;DHT22;61000;48.120;11.548;2023-04-12T08:45:41;7.80;99.90
72865;DHT22;61000;48.120;11.548;2023-04-12T08:48:09;7.80;99.90
72865;DHT22;61000;48.120;11.548;2023-04-12T08:50:38;7.90;99.90
72865;DHT22;61000;48.120;11.548;2023-04-12T08:53:09;7.90;99.90
72865;DHT22;61000;48.120;11.548;2023-04-12T08:55:36;7.90;99.90
72865;DHT22;61000;48.120;11.548;2023-04-12T08:58:03;7.90;99.90
72865;DHT22;61000;48.120;11.548;2023-04-12T09:00:36;7.80;99.90
72865;DHT22;61000;48.120;11.548;2023-04-12T09:03:03;7.80;99.90
72865;DHT22;61000;48.120;11.548;2023-04-12T09:05:31;7.90;99.90
72865;DHT22;61000;48.120;11.548;2023-04-12T09:07:59;7.90;99.90
72865;DHT22;61000;48.120;11.548;2023-04-12T09:10:31;8.00;99.90
72865;DHT22;61000;48.120;11.548;2023-04-12T09:12:58;8.20;99.90
72865;DHT22;61000;48.120;11.548;2023-04-12T09:15:25;8.10;99.90
72865;DHT22;61000;48.120;11.548;2023-04-12T09:18:03;8.30;99.90
72865;DHT22;61000;48.120;11.548;2023-04-12T09:20:30;8.30;99.90
72865;DHT22;61000;48.120;11.548;2023-04-12T09:22:59;8.40;99.90
72865;DHT22;61000;48.120;11.548;2023-04-12T09:25:38;8.70;99.90
72865;DHT22;61000;48.120;11.548;2023-04-12T09:28:18;8.90;99.90
72865;DHT22;61000;48.120;11.548;2023-04-12T09:30:45;9.00;99.90
72865;DHT22;61000;48.120;11.548;2023-04-12T09:33:17;9.10;99.90
72865;DHT22;61000;48.120;11.548;2023-04-12T09:35:44;9.10;99.90
72865;DHT22;61000;48.120;11.548;2023-04-12T09:38:13;9.30;99.90
72865;DHT22;61000;48.120;11.548;2023-04-12T09:40:40;9.60;99.90
72865;DHT22;61000;48.120;11.548;2023-04-12T09:43:07;10.00;99.90
72865;DHT22;61000;48.120;11.548;2023-04-12T09:45:35;9.80;99.90
72865;DHT22;61000;48.120;11.548;2023-04-12T09:48:04;9.90;99.90
72865;DHT22;61000;48.120;11.548;2023-04-12T09:50:32;10.10;99.90
72865;DHT22;61000;48.120;11.548;2023-04-12T09:53:00;10.00;99.90
72865;DHT22;61000;48.120;11.548;2023-04-12T09:55:30;10.00;99.90
72865;DHT22;61000;48.120;11.548;2023-04-12T09:58:01;10.10;99.90
72865;DHT22;61000;48.120;11.548;2023-04-12T10:00:30;10.20;99.90
72865;DHT22;61000;48.120;11.548;2023-04-12T10:02:59;10.20;99.90
72865;DHT22;61000;48.120;11.548;2023-04-12T10:07:57;11.00;99.90
72865;DHT22;61000;48.120;11.548;2023-04-12T10:10:29;11.20;99.90
72865;DHT22;61000;48.120;11.548;2023-04-12T10:12:57;11.50;99.90
72865;DHT22;61000;48.120;11.548;2023-04-12T10:15:24;12.00;99.90
72865;DHT22;61000;48.120;11.548;2023-04-12T10:17:56;12.40;99.90
72865;DHT22;61000;48.120;11.548;2023-04-12T10:20:23;12.20;99.90
72865;DHT22;61000;48.120;11.548;2023-04-12T10:22:51;12.00;99.90
72865;DHT22;61000;48.120;11.548;2023-04-12T10:25:23;12.10;99.90
72865;DHT22;61000;48.120;11.548;2023-04-12T10:27:52;12.30;99.90
72865;DHT22;61000;48.120;11.548;2023-04-12T10:30:23;12.40;99.90
72865;DHT22;61000;48.120;11.548;2023-04-12T10:33:11;12.70;99.90
72865;DHT22;61000;48.120;11.548;2023-04-12T10:35:57;12.70;99.90
72865;DHT22;61000;48.120;11.548;2023-04-12T10:38:28;12.70;99.90
72865;DHT22;61000;48.120;11.548;2023-04-12T10:41:15;12.60;99.90
72865;DHT22;61000;48.120;11.548;2023-04-12T10:43:43;12.70;99.90
72865;DHT22;61000;48.120;11.548;2023-04-12T10:49:16;12.90;99.90
72865;DHT22;61000;48.120;11.548;2023-04-12T10:52:17;12.80;99.60
72865;DHT22;61000;48.120;11.548;2023-04-12T10:54:44;13.10;99.20
72865;DHT22;61000;48.120;11.548;2023-04-12T10:57:43;13.10;98.80
72865;DHT22;61000;48.120;11.548;2023-04-12T11:00:14;13.30;99.00
72865;DHT22;61000;48.120;11.548;2023-04-12T11:03:04;13.10;98.20
72865;DHT22;61000;48.120;11.548;2023-04-12T11:05:56;12.80;99.00
72865;DHT22;61000;48.120;11.548;2023-04-12T11:08:42;12.70;99.70
72865;DHT22;61000;48.120;11.548;2023-04-12T11:11:33;12.80;99.90
72865;DHT22;61000;48.120;11.548;2023-04-12T11:14:00;13.00;99.90
72865;DHT22;61000;48.120;11.548;2023-04-12T11:16:29;12.90;99.50
72865;DHT22;61000;48.120;11.548;2023-04-12T11:18:56;13.00;99.80
72865;DHT22;61000;48.120;11.548;2023-04-12T11:21:23;12.90;99.90
72865;DHT22;61000;48.120;11.548;2023-04-12T11:23:51;12.90;99.90
72865;DHT22;61000;48.120;11.548;2023-04-12T11:26:19;13.00;99.90
72865;DHT22;61000;48.120;11.548;2023-04-12T11:28:46;13.10;99.50
72865;DHT22;61000;48.120;11.548;2023-04-12T11:31:19;13.20;99.70
72865;DHT22;61000;48.120;11.548;2023-04-12T11:33:47;13.30;99.40
72865;DHT22;61000;48.120;11.548;2023-04-12T11:36:14;13.30;99.40
72865;DHT22;61000;48.120;11.548;2023-04-12T11:38:42;13.30;99.60
72865;DHT22;61000;48.120;11.548;2023-04-12T11:41:10;13.20;99.70
72865;DHT22;61000;48.120;11.548;2023-04-12T11:43:41;13.30;99.90
72865;DHT22;61000;48.120;11.548;2023-04-12T11:46:09;13.30;99.90
72865;DHT22;61000;48.120;11.548;2023-04-12T11:48:36;13.20;99.90
72865;DHT22;61000;48.120;11.548;2023-04-12T11:51:19;13.10;99.90
72865;DHT22;61000;48.120;11.548;2023-04-12T11:53:49;13.00;99.90
72865;DHT22;61000;48.120;11.548;2023-04-12T11:56:17;13.00;99.90
72865;DHT22;61000;48.120;11.548;2023-04-12T11:58:46;13.00;99.90
72865;DHT22;61000;48.120;11.548;2023-04-12T12:01:13;13.00;99.90
72865;DHT22;61000;48.120;11.548;2023-04-12T12:03:41;13.10;99.90
72865;DHT22;61000;48.120;11.548;2023-04-12T12:06:09;13.10;99.90
72865;DHT22;61000;48.120;11.548;2023-04-12T12:08:38;13.10;99.90
72865;DHT22;61000;48.120;11.548;2023-04-12T12:11:06;13.00;99.90
72865;DHT22;61000;48.120;11.548;2023-04-12T12:13:46;13.20;99.90
72865;DHT22;61000;48.120;11.548;2023-04-12T12:16:13;13.40;99.90
72865;DHT22;61000;48.120;11.548;2023-04-12T12:18:41;13.60;99.90
72865;DHT22;61000;48.120;11.548;2023-04-12T12:23:37;13.70;99.40
72865;DHT22;61000;48.120;11.548;2023-04-12T12:26:05;13.70;99.90
72865;DHT22;61000;48.120;11.548;2023-04-12T12:28:35;13.80;99.90
72865;DHT22;61000;48.120;11.548;2023-04-12T12:31:05;13.60;99.90
72865;DHT22;61000;48.120;11.548;2023-04-12T12:33:35;13.50;99.70
72865;DHT22;61000;48.120;11.548;2023-04-12T12:36:03;13.50;99.80
72865;DHT22;61000;48.120;11.548;2023-04-12T12:38:34;13.60;99.90
72865;DHT22;61000;48.120;11.548;2023-04-12T12:41:15;13.70;99.70
72865;DHT22;61000;48.120;11.548;2023-04-12T12:43:45;13.70;99.80
72865;DHT22;61000;48.120;11.548;2023-04-12T12:46:12;13.80;99.70
72865;DHT22;61000;48.120;11.548;2023-04-12T12:48:39;14.10;99.30
72865;DHT22;61000;48.120;11.548;2023-04-12T12:51:07;14.40;98.80
72865;DHT22;61000;48.120;11.548;2023-04-12T12:53:34;14.40;97.80
72865;DHT22;61000;48.120;11.548;2023-04-12T12:56:01;14.30;98.00
72865;DHT22;61000;48.120;11.548;2023-04-12T12:58:30;14.50;97.90
72865;DHT22;61000;48.120;11.548;2023-04-12T13:00:57;14.60;97.40
72865;DHT22;61000;48.120;11.548;2023-04-12T13:03:23;14.80;97.40
72865;DHT22;61000;48.120;11.548;2023-04-12T13:05:50;14.80;97.60
72865;DHT22;61000;48.120;11.548;2023-04-12T13:08:17;14.80;97.50
72865;DHT22;61000;48.120;11.548;2023-04-12T13:10:44;14.80;97.50
72865;DHT22;61000;48.120;11.548;2023-04-12T13:13:11;14.90;97.50
72865;DHT22;61000;48.120;11.548;2023-04-12T13:15:39;14.70;96.00
72865;DHT22;61000;48.120;11.548;2023-04-12T13:18:06;14.70;95.10
72865;DHT22;61000;48.120;11.548;2023-04-12T13:20:33;14.60;95.10
72865;DHT22;61000;48.120;11.548;2023-04-12T13:23:00;14.60;94.90
72865;DHT22;61000;48.120;11.548;2023-04-12T13:25:27;14.60;95.00
72865;DHT22;61000;48.120;11.548;2023-04-12T13:27:54;14.60;94.90
72865;DHT22;61000;48.120;11.548;2023-04-12T13:30:21;14.60;94.80
72865;DHT22;61000;48.120;11.548;2023-04-12T13:32:49;14.50;94.60
72865;DHT22;61000;48.120;11.548;2023-04-12T13:35:16;14.50;94.60
72865;DHT22;61000;48.120;11.548;2023-04-12T13:37:43;14.30;94.70
72865;DHT22;61000;48.120;11.548;2023-04-12T13:40:10;14.20;94.70
72865;DHT22;61000;48.120;11.548;2023-04-12T13:42:38;14.00;95.30
72865;DHT22;61000;48.120;11.548;2023-04-12T13:45:06;14.00;95.20
72865;DHT22;61000;48.120;11.548;2023-04-12T13:47:33;14.00;95.30
72865;DHT22;61000;48.120;11.548;2023-04-12T13:50:01;13.90;95.40
72865;DHT22;61000;48.120;11.548;2023-04-12T13:52:28;13.80;95.80
72865;DHT22;61000;48.120;11.548;2023-04-12T13:54:55;13.80;96.30
72865;DHT22;61000;48.120;11.548;2023-04-12T13:57:24;13.80;96.70
72865;DHT22;61000;48.120;11.548;2023-04-12T13:59:51;13.70;96.90
72865;DHT22;61000;48.120;11.548;2023-04-12T14:02:17;13.70;97.20
72865;DHT22;61000;48.120;11.548;2023-04-12T14:04:49;13.60;97.20
72865;DHT22;61000;48.120;11.548;2023-04-12T14:07:18;13.70;97.30
72865;DHT22;61000;48.120;11.548;2023-04-12T14:09:45;13.90;97.20
72865;DHT22;61000;48.120;11.548;2023-04-12T14:12:13;14.10;97.00
72865;DHT22;61000;48.120;11.548;2023-04-12T14:14:40;14.40;96.70
72865;DHT22;61000;48.120;11.548;2023-04-12T14:17:07;14.70;96.30
72865;DHT22;61000;48.120;11.548;2023-04-12T14:19:34;14.70;96.10
72865;DHT22;61000;48.120;11.548;2023-04-12T14:22:01;14.80;95.90
72865;DHT22;61000;48.120;11.548;2023-04-12T14:24:29;15.10;95.40
72865;DHT22;61000;48.120;11.548;2023-04-12T14:26:57;15.30;95.00
72865;DHT22;61000;48.120;11.548;2023-04-12T14:29:25;15.40;94.50
72865;DHT22;61000;48.120;11.548;2023-04-12T14:31:52;15.30;94.00
72865;DHT22;61000;48.120;11.548;2023-04-12T14:34:19;15.40;94.10
72865;DHT22;61000;48.120;11.548;2023-04-12T14:36:46;15.40;94.20
72865;DHT22;61000;48.120;11.548;2023-04-12T14:39:12;15.40;93.30
72865;DHT22;61000;48.120;11.548;2023-04-12T14:41:41;15.30;93.20
72865;DHT22;61000;48.120;11.548;2023-04-12T14:44:08;15.20;93.60
72865;DHT22;61000;48.120;11.548;2023-04-12T14:46:35;15.20;93.60
72865;DHT22;61000;48.120;11.548;2023-04-12T14:49:01;15.10;93.50
72865;DHT22;61000;48.120;11.548;2023-04-12T14:51:28;15.10;93.30
72865;DHT22;61000;48.120;11.548;2023-04-12T14:53:56;15.20;93.60
72865;DHT22;61000;48.120;11.548;2023-04-12T14:56:24;15.30;93.30
72865;DHT22;61000;48.120;11.548;2023-04-12T14:58:54;15.20;92.90
72865;DHT22;61000;48.120;11.548;2023-04-12T15:01:21;15.20;92.70
72865;DHT22;61000;48.120;11.548;2023-04-12T15:03:49;15.10;92.90
72865;DHT22;61000;48.120;11.548;2023-04-12T15:06:16;15.00;92.80
72865;DHT22;61000;48.120;11.548;2023-04-12T15:08:43;14.90;92.80
72865;DHT22;61000;48.120;11.548;2023-04-12T15:11:11;14.80;92.90
72865;DHT22;61000;48.120;11.548;2023-04-12T15:13:38;14.80;93.10
72865;DHT22;61000;48.120;11.548;2023-04-12T15:16:09;14.80;93.40
72865;DHT22;61000;48.120;11.548;2023-04-12T15:18:37;14.70;93.80
72865;DHT22;61000;48.120;11.548;2023-04-12T15:21:07;14.70;94.20
72865;DHT22;61000;48.120;11.548;2023-04-12T15:23:35;14.60;94.20
72865;DHT22;61000;48.120;11.548;2023-04-12T15:26:02;14.40;94.20
72865;DHT22;61000;48.120;11.548;2023-04-12T15:28:31;14.40;94.60
72865;DHT22;61000;48.120;11.548;2023-04-12T15:30:58;14.40;94.70
72865;DHT22;61000;48.120;11.548;2023-04-12T15:33:27;14.30;94.80
72865;DHT22;61000;48.120;11.548;2023-04-12T15:35:54;14.30;95.00
72865;DHT22;61000;48.120;11.548;2023-04-12T15:38:24;14.30;94.70
72865;DHT22;61000;48.120;11.548;2023-04-12T15:40:53;14.20;94.00
72865;DHT22;61000;48.120;11.548;2023-04-12T15:43:21;14.20;93.70
72865;DHT22;61000;48.120;11.548;2023-04-12T15:45:48;14.10;93.90